createdAt,value
2023-01-26T00:00:44.293Z,51.80
2023-01-26T00:03:32.229Z,47.17
2023-01-26T00:06:22.976Z,56.60
2023-01-26T00:09:14.245Z,53.23
2023-01-26T00:12:02.053Z,51.70
2023-01-26T00:14:50.937Z,51.73
2023-01-26T00:17:38.325Z,45.40
2023-01-26T00:20:24.817Z,48.03
2023-01-26T00:23:11.197Z,45.37
2023-01-26T00:25:57.785Z,44.03
2023-01-26T00:28:45.901Z,52.63
2023-01-26T00:31:32.767Z,45.97
2023-01-26T00:34:19.567Z,46.73
2023-01-26T00:37:05.933Z,43.73
2023-01-26T00:39:52.400Z,44.47
2023-01-26T00:42:39.888Z,46.57
2023-01-26T00:45:27.932Z,50.67
2023-01-26T00:48:14.545Z,53.10
2023-01-26T00:51:00.851Z,53.43
2023-01-26T00:53:47.324Z,56.97
2023-01-26T00:56:33.759Z,51.63
2023-01-26T00:59:20.138Z,57.00
2023-01-26T01:02:07.957Z,49.47
2023-01-26T01:04:54.665Z,50.13
2023-01-26T01:07:41.672Z,55.07
2023-01-26T01:10:28.130Z,53.53
2023-01-26T01:13:14.644Z,58.90
2023-01-26T01:16:01.178Z,54.77
2023-01-26T01:18:48.822Z,54.63
2023-01-26T01:21:36.408Z,53.53
2023-01-26T01:24:22.794Z,60.30
2023-01-26T01:27:09.577Z,52.93
2023-01-26T01:29:55.853Z,61.23
2023-01-26T01:32:43.141Z,59.53
2023-01-26T01:35:31.661Z,59.23
2023-01-26T01:38:18.233Z,47.07
2023-01-26T01:41:05.203Z,57.23
2023-01-26T01:43:52.308Z,47.77
2023-01-26T01:46:41.240Z,54.33
2023-01-26T01:49:31.268Z,54.80
2023-01-26T01:52:26.197Z,49.73
2023-01-26T01:55:16.170Z,55.13
2023-01-26T01:58:03.877Z,59.87
2023-01-26T02:00:50.203Z,49.80
2023-01-26T02:03:37.920Z,50.10
2023-01-26T02:06:29.603Z,52.27
2023-01-26T02:09:33.289Z,56.50
2023-01-26T02:12:23.929Z,55.17
2023-01-26T02:15:11.133Z,51.80
2023-01-26T02:18:02.298Z,50.20
2023-01-26T02:20:52.341Z,49.13
2023-01-26T02:23:50.443Z,49.83
2023-01-26T02:26:39.203Z,55.57
2023-01-26T02:29:25.712Z,50.40
2023-01-26T02:32:12.138Z,49.00
2023-01-26T02:34:58.753Z,54.20
2023-01-26T02:37:45.758Z,58.13
2023-01-26T02:40:40.127Z,53.37
2023-01-26T02:43:28.133Z,52.50
2023-01-26T02:46:14.422Z,55.53
2023-01-26T02:49:18.200Z,52.97
2023-01-26T02:52:06.404Z,55.33
2023-01-26T02:55:10.291Z,56.00
2023-01-26T02:57:58.890Z,53.13
2023-01-26T03:00:46.811Z,59.40
2023-01-26T03:03:42.537Z,58.87
2023-01-26T03:06:28.858Z,57.00
2023-01-26T03:09:15.391Z,63.77
2023-01-26T03:12:02.168Z,58.50
2023-01-26T03:15:09.352Z,60.63
2023-01-26T03:18:21.989Z,58.20
2023-01-26T03:21:30.111Z,62.57
2023-01-26T03:24:34.458Z,58.13
2023-01-26T03:27:30.072Z,62.60
2023-01-26T03:30:19.431Z,58.40
2023-01-26T03:33:07.420Z,54.13
2023-01-26T03:35:55.526Z,56.63
2023-01-26T03:38:41.833Z,57.90
2023-01-26T03:41:45.565Z,59.70
2023-01-26T03:44:49.572Z,49.07
2023-01-26T03:47:54.128Z,53.07
2023-01-26T03:50:59.356Z,56.10
2023-01-26T03:54:03.915Z,71.00
2023-01-26T03:56:50.503Z,57.90
2023-01-26T03:59:39.660Z,76.70
2023-01-26T04:02:43.492Z,58.53
2023-01-26T04:05:47.560Z,52.50
2023-01-26T04:08:35.518Z,53.20
2023-01-26T04:11:22.269Z,54.37
2023-01-26T04:14:29.461Z,55.87
2023-01-26T04:17:35.509Z,51.20
2023-01-26T04:20:39.592Z,55.77
2023-01-26T04:23:26.309Z,53.10
2023-01-26T04:26:14.172Z,47.67
2023-01-26T04:29:01.042Z,48.47
2023-01-26T04:31:47.412Z,60.93
2023-01-26T04:34:34.290Z,48.77
2023-01-26T04:37:20.673Z,54.27
2023-01-26T04:40:08.289Z,50.50
2023-01-26T04:42:55.994Z,53.37
2023-01-26T04:45:42.374Z,54.90
2023-01-26T04:48:29.010Z,56.93
2023-01-26T04:51:17.818Z,52.27
2023-01-26T04:54:04.563Z,55.10
2023-01-26T04:56:51.746Z,61.30
2023-01-26T04:59:39.766Z,58.03
2023-01-26T05:02:26.422Z,53.17
2023-01-26T05:05:12.771Z,49.80
2023-01-26T05:07:59.106Z,52.40
2023-01-26T05:10:45.572Z,54.10
2023-01-26T05:13:32.210Z,52.10
2023-01-26T05:16:20.276Z,58.70
2023-01-26T05:19:06.824Z,58.93
2023-01-26T05:21:53.177Z,54.10
2023-01-26T05:24:39.553Z,51.63
2023-01-26T05:27:25.861Z,51.70
2023-01-26T05:30:14.826Z,54.57
2023-01-26T05:33:04.101Z,55.63
2023-01-26T05:35:50.633Z,55.97
2023-01-26T05:38:37.478Z,55.13
2023-01-26T05:41:23.979Z,49.43
2023-01-26T05:44:10.651Z,54.60
2023-01-26T05:46:57.221Z,51.87
2023-01-26T05:49:45.875Z,55.77
2023-01-26T05:52:32.348Z,60.67
2023-01-26T05:55:18.928Z,56.10
2023-01-26T05:58:05.499Z,58.80
2023-01-26T06:00:51.847Z,61.03
2023-01-26T06:03:38.333Z,56.90
2023-01-26T06:06:26.218Z,54.73
2023-01-26T06:09:13.052Z,55.63
2023-01-26T06:11:59.414Z,53.83
2023-01-26T06:14:47.305Z,51.00
2023-01-26T06:17:34.127Z,50.07
2023-01-26T06:20:20.599Z,50.37
2023-01-26T06:23:11.850Z,52.70
2023-01-26T06:26:00.332Z,47.50
2023-01-26T06:28:46.896Z,45.47
2023-01-26T06:31:33.345Z,45.67
2023-01-26T06:34:21.606Z,49.90
2023-01-26T06:37:08.551Z,45.43
2023-01-26T06:39:56.205Z,54.57
2023-01-26T06:42:48.457Z,48.17
2023-01-26T06:45:34.841Z,44.77
2023-01-26T06:48:21.235Z,39.17
2023-01-26T06:51:39.201Z,52.23
2023-01-26T06:54:25.606Z,44.23
2023-01-26T06:57:13.472Z,45.80
2023-01-26T06:59:59.887Z,49.80
2023-01-26T07:02:46.304Z,43.57
2023-01-26T07:05:32.734Z,46.83
2023-01-26T07:08:19.130Z,49.60
2023-01-26T07:11:08.906Z,49.80
2023-01-26T07:13:57.576Z,44.57
2023-01-26T07:16:44.179Z,50.27
2023-01-26T07:19:33.293Z,47.03
2023-01-26T07:22:19.976Z,49.70
2023-01-26T07:25:06.690Z,48.40
2023-01-26T07:27:57.283Z,44.83
2023-01-26T07:30:45.198Z,46.87
2023-01-26T07:33:32.720Z,45.07
2023-01-26T07:36:19.189Z,46.37
2023-01-26T07:39:08.187Z,46.87
2023-01-26T07:41:55.219Z,48.50
2023-01-26T07:44:41.699Z,53.87
2023-01-26T07:47:29.825Z,49.60
2023-01-26T07:50:18.433Z,51.13
2023-01-26T07:53:05.072Z,46.33
2023-01-26T07:55:51.984Z,50.90
2023-01-26T07:58:38.678Z,47.33
2023-01-26T08:01:25.687Z,50.20
2023-01-26T08:04:13.682Z,42.77
2023-01-26T08:07:00.264Z,52.67
2023-01-26T08:09:47.174Z,44.43
2023-01-26T08:12:38.953Z,48.67
2023-01-26T08:15:26.900Z,47.83
2023-01-26T08:18:13.362Z,49.50
2023-01-26T08:21:01.515Z,44.53
2023-01-26T08:23:50.291Z,45.37
2023-01-26T08:26:37.065Z,46.13
2023-01-26T08:29:23.420Z,42.87
2023-01-26T08:32:10.177Z,45.77
2023-01-26T08:34:57.106Z,48.40
2023-01-26T08:37:44.805Z,50.70
2023-01-26T08:40:31.231Z,49.97
2023-01-26T08:43:17.729Z,45.67
2023-01-26T08:46:04.414Z,46.80
2023-01-26T08:48:51.045Z,43.83
2023-01-26T08:51:37.331Z,44.63
2023-01-26T08:54:25.069Z,47.03
2023-01-26T08:57:12.281Z,45.93
2023-01-26T08:59:58.636Z,47.63
2023-01-26T09:02:45.164Z,42.70
2023-01-26T09:05:34.508Z,46.33
2023-01-26T09:08:21.086Z,40.60
2023-01-26T09:11:09.516Z,42.67
2023-01-26T09:13:57.287Z,38.93
2023-01-26T09:16:43.662Z,34.70
2023-01-26T09:19:31.221Z,39.63
2023-01-26T09:22:17.785Z,37.93
2023-01-26T09:25:04.525Z,43.17
2023-01-26T09:27:52.253Z,38.87
2023-01-26T09:30:38.822Z,42.57
2023-01-26T09:33:26.815Z,42.37
2023-01-26T09:36:13.976Z,42.17
2023-01-26T09:39:01.075Z,45.57
2023-01-26T09:42:13.194Z,37.83
2023-01-26T09:45:13.704Z,40.67
2023-01-26T09:48:13.196Z,44.20
2023-01-26T09:51:08.144Z,34.43
2023-01-26T09:53:58.425Z,45.07
2023-01-26T09:56:45.362Z,37.50
2023-01-26T09:59:36.681Z,40.53
2023-01-26T10:02:36.435Z,36.70
2023-01-26T10:05:31.296Z,44.27
2023-01-26T10:08:20.370Z,41.17
2023-01-26T10:11:13.405Z,40.00
2023-01-26T10:14:03.652Z,40.20
2023-01-26T10:16:54.151Z,39.53
2023-01-26T10:19:46.546Z,39.50
2023-01-26T10:22:41.360Z,39.23
2023-01-26T10:25:32.090Z,43.30
2023-01-26T10:28:20.734Z,35.73
2023-01-26T10:31:13.480Z,40.20
2023-01-26T10:34:03.174Z,39.80
2023-01-26T10:36:51.136Z,40.73
2023-01-26T10:39:49.774Z,34.47
2023-01-26T10:42:37.509Z,34.87
2023-01-26T10:45:30.536Z,36.23
2023-01-26T10:48:19.885Z,33.13
2023-01-26T10:51:16.926Z,38.63
2023-01-26T10:54:23.993Z,36.10
2023-01-26T10:57:18.706Z,35.23
2023-01-26T11:00:10.712Z,30.13
2023-01-26T11:03:06.179Z,32.33
2023-01-26T11:06:07.276Z,31.03
2023-01-26T11:08:53.920Z,32.73
2023-01-26T11:11:42.840Z,29.07
2023-01-26T11:14:31.126Z,32.07
2023-01-26T11:17:24.768Z,32.10
2023-01-26T11:20:45.061Z,27.70
2023-01-26T11:23:45.596Z,31.63
2023-01-26T11:26:49.400Z,30.50
2023-01-26T11:29:53.542Z,26.83
2023-01-26T11:32:47.670Z,29.83
2023-01-26T11:35:46.101Z,29.40
2023-01-26T11:38:41.590Z,28.17
2023-01-26T11:41:41.740Z,25.40
2023-01-26T11:45:07.602Z,25.90
2023-01-26T11:48:14.138Z,24.87
2023-01-26T11:51:08.496Z,26.07
2023-01-26T11:54:15.693Z,23.87
2023-01-26T11:57:12.561Z,23.97
2023-01-26T12:00:05.688Z,21.37
2023-01-26T12:03:00.525Z,21.30
2023-01-26T12:05:51.257Z,21.30
2023-01-26T12:08:42.218Z,23.00
2023-01-26T12:11:35.047Z,25.03
2023-01-26T12:14:26.559Z,21.63
2023-01-26T12:17:28.889Z,24.30
2023-01-26T12:20:28.888Z,23.57
2023-01-26T12:23:25.996Z,24.97
2023-01-26T12:26:16.148Z,23.20
2023-01-26T12:29:09.722Z,18.67
2023-01-26T12:32:02.069Z,21.87
2023-01-26T12:34:50.018Z,23.90
2023-01-26T12:37:48.283Z,21.53
2023-01-26T12:40:41.985Z,19.50
2023-01-26T12:43:46.058Z,22.50
2023-01-26T12:46:36.688Z,20.60
2023-01-26T12:49:27.382Z,22.47
2023-01-26T12:52:21.079Z,21.57
2023-01-26T12:55:16.565Z,19.77
2023-01-26T12:58:06.321Z,20.97
2023-01-26T13:01:03.591Z,18.07
2023-01-26T13:03:55.098Z,19.37
2023-01-26T13:06:42.089Z,18.23
2023-01-26T13:09:29.864Z,17.47
2023-01-26T13:12:52.061Z,17.63
2023-01-26T13:15:40.596Z,17.33
2023-01-26T13:18:51.659Z,13.60
2023-01-26T13:21:44.984Z,17.10
2023-01-26T13:24:48.695Z,15.43
2023-01-26T13:27:41.952Z,17.43
2023-01-26T13:30:43.299Z,14.37
2023-01-26T13:33:30.017Z,16.97
2023-01-26T13:36:19.208Z,13.50
2023-01-26T13:39:14.778Z,15.60
2023-01-26T13:42:03.218Z,16.37
2023-01-26T13:44:57.340Z,15.23
2023-01-26T13:47:46.510Z,14.00
2023-01-26T13:50:37.672Z,11.23
2023-01-26T13:53:36.113Z,15.27
2023-01-26T13:56:28.782Z,13.17
2023-01-26T13:59:19.422Z,13.47
2023-01-26T14:02:21.971Z,12.53
2023-01-26T14:05:09.393Z,12.10
2023-01-26T14:07:57.060Z,13.23
2023-01-26T14:10:44.185Z,11.67
2023-01-26T14:13:34.256Z,14.90
2023-01-26T14:16:26.476Z,16.03
2023-01-26T14:19:16.301Z,12.33
2023-01-26T14:22:05.217Z,11.63
2023-01-26T14:24:52.826Z,11.57
2023-01-26T14:27:41.284Z,13.23
2023-01-26T14:30:30.532Z,14.50
2023-01-26T14:33:19.219Z,10.73
2023-01-26T14:36:07.312Z,12.00
2023-01-26T14:38:56.052Z,15.70
2023-01-26T14:41:43.370Z,15.67
2023-01-26T14:44:30.604Z,13.07
2023-01-26T14:47:21.825Z,13.43
2023-01-26T14:50:16.503Z,13.20
2023-01-26T14:53:04.603Z,12.53
2023-01-26T14:55:52.845Z,18.50
2023-01-26T14:58:39.961Z,17.00
2023-01-26T15:01:28.252Z,16.53
2023-01-26T15:04:23.409Z,10.20
2023-01-26T15:07:39.916Z,17.47
2023-01-26T15:10:33.796Z,15.17
2023-01-26T15:13:23.755Z,23.73
2023-01-26T15:16:16.994Z,13.87
2023-01-26T15:19:06.796Z,11.27
2023-01-26T15:21:53.428Z,13.83
2023-01-26T15:24:41.936Z,20.70
2023-01-26T15:27:32.571Z,22.87
2023-01-26T15:30:22.946Z,16.13
2023-01-26T15:33:55.919Z,26.77
2023-01-26T15:36:49.670Z,22.07
2023-01-26T15:39:37.813Z,15.83
2023-01-26T15:42:28.863Z,15.03
2023-01-26T15:45:25.177Z,21.90
2023-01-26T15:48:11.522Z,31.17
2023-01-26T15:50:57.816Z,22.17
2023-01-26T15:53:44.926Z,20.23
2023-01-26T15:56:31.640Z,22.53
2023-01-26T15:59:19.642Z,22.90
2023-01-26T16:02:12.152Z,18.30
2023-01-26T16:04:59.113Z,30.87
2023-01-26T16:07:45.965Z,46.33
2023-01-26T16:10:33.251Z,19.73
2023-01-26T16:13:20.472Z,27.37
2023-01-26T16:16:11.104Z,18.97
2023-01-26T16:18:58.400Z,18.77
2023-01-26T16:21:45.757Z,17.53
2023-01-26T16:24:32.576Z,22.03
2023-01-26T16:27:21.647Z,17.87
2023-01-26T16:30:09.777Z,24.80
2023-01-26T16:32:57.818Z,22.13
2023-01-26T16:35:44.568Z,23.70
2023-01-26T16:38:30.952Z,33.60
2023-01-26T16:41:21.525Z,25.40
2023-01-26T16:44:14.485Z,27.73
2023-01-26T16:47:01.211Z,23.90
2023-01-26T16:49:48.948Z,49.70
2023-01-26T16:52:36.081Z,20.53
2023-01-26T16:55:23.373Z,38.63
2023-01-26T16:58:10.277Z,18.87
2023-01-26T17:00:57.216Z,31.00
2023-01-26T17:03:44.036Z,24.50
2023-01-26T17:06:32.790Z,17.97
2023-01-26T17:09:20.973Z,19.47
2023-01-26T17:12:07.657Z,34.23
2023-01-26T17:14:54.436Z,23.60
2023-01-26T17:17:42.630Z,16.73
2023-01-26T17:20:29.426Z,21.07
2023-01-26T17:23:17.161Z,23.00
2023-01-26T17:26:03.754Z,24.23
2023-01-26T17:28:53.633Z,24.53
2023-01-26T17:31:40.232Z,21.80
2023-01-26T17:34:26.996Z,22.43
2023-01-26T17:37:13.666Z,20.47
2023-01-26T17:40:01.416Z,21.37
2023-01-26T17:42:48.161Z,25.47
2023-01-26T17:45:34.588Z,21.60
2023-01-26T17:48:21.369Z,28.33
2023-01-26T17:51:08.436Z,26.13
2023-01-26T17:53:55.290Z,18.07
2023-01-26T17:56:43.389Z,29.80
2023-01-26T17:59:30.035Z,29.17
2023-01-26T18:02:16.979Z,23.20
2023-01-26T18:05:03.721Z,25.10
2023-01-26T18:07:51.200Z,23.03
2023-01-26T18:10:37.761Z,24.93
2023-01-26T18:13:25.588Z,20.30
2023-01-26T18:16:15.938Z,22.80
2023-01-26T18:19:04.407Z,24.43
2023-01-26T18:21:51.306Z,21.97
2023-01-26T18:24:37.679Z,24.23
2023-01-26T18:27:24.081Z,26.77
2023-01-26T18:30:13.395Z,45.73
2023-01-26T18:33:00.236Z,51.27
2023-01-26T18:35:46.830Z,46.67
2023-01-26T18:38:33.269Z,26.57
2023-01-26T18:41:21.457Z,25.57
2023-01-26T18:44:08.377Z,58.23
2023-01-26T18:46:56.084Z,54.77
2023-01-26T18:49:42.776Z,34.10
2023-01-26T18:52:31.025Z,35.83
2023-01-26T18:55:17.711Z,33.13
2023-01-26T18:58:04.344Z,31.17
2023-01-26T19:00:50.916Z,35.83
2023-01-26T19:03:39.989Z,34.80
2023-01-26T19:06:28.375Z,43.13
2023-01-26T19:09:15.083Z,31.33
2023-01-26T19:12:02.139Z,42.50
2023-01-26T19:14:48.515Z,35.77
2023-01-26T19:17:34.890Z,41.13
2023-01-26T19:20:22.767Z,28.33
2023-01-26T19:23:09.691Z,39.27
2023-01-26T19:25:57.370Z,34.17
2023-01-26T19:28:43.761Z,35.20
2023-01-26T19:31:30.773Z,45.47
2023-01-26T19:34:18.041Z,39.83
2023-01-26T19:37:05.665Z,35.23
2023-01-26T19:39:52.072Z,32.73
2023-01-26T19:42:38.404Z,37.73
2023-01-26T19:45:24.854Z,37.53
2023-01-26T19:48:11.653Z,34.27
2023-01-26T19:51:00.824Z,37.33
2023-01-26T19:53:50.999Z,35.77
2023-01-26T19:56:38.031Z,31.57
2023-01-26T19:59:26.052Z,30.23
2023-01-26T20:02:12.340Z,41.30
2023-01-26T20:04:58.645Z,44.93
2023-01-26T20:07:45.120Z,37.07
2023-01-26T20:10:33.196Z,33.40
2023-01-26T20:13:19.625Z,28.60
2023-01-26T20:16:08.183Z,32.17
2023-01-26T20:18:54.837Z,29.83
2023-01-26T20:21:41.287Z,25.77
2023-01-26T20:24:27.734Z,25.60
2023-01-26T20:27:16.374Z,26.43
2023-01-26T20:30:03.020Z,29.97
2023-01-26T20:32:52.844Z,36.53
2023-01-26T20:35:42.759Z,32.90
2023-01-26T20:38:29.157Z,31.90
2023-01-26T20:41:17.523Z,33.17
2023-01-26T20:44:07.488Z,30.83
2023-01-26T20:46:53.903Z,23.93
2023-01-26T20:49:40.565Z,27.83
2023-01-26T20:52:27.237Z,20.63
2023-01-26T20:55:13.774Z,24.50
2023-01-26T20:58:00.273Z,20.83
2023-01-26T21:00:47.999Z,21.63
2023-01-26T21:03:35.082Z,20.33
2023-01-26T21:06:24.128Z,23.07
2023-01-26T21:09:12.918Z,16.87
2023-01-26T21:11:59.539Z,17.87
2023-01-26T21:14:46.667Z,22.00
2023-01-26T21:17:34.518Z,23.13
2023-01-26T21:20:21.684Z,19.50
2023-01-26T21:23:08.295Z,18.53
2023-01-26T21:25:59.534Z,24.10
2023-01-26T21:28:49.957Z,18.97
2023-01-26T21:31:36.802Z,15.33
2023-01-26T21:34:25.051Z,15.20
2023-01-26T21:37:11.716Z,16.60
2023-01-26T21:39:58.300Z,18.23
2023-01-26T21:42:44.694Z,19.73
2023-01-26T21:45:48.370Z,21.50
2023-01-26T21:48:38.079Z,16.77
2023-01-26T21:51:44.333Z,17.40
2023-01-26T21:54:31.856Z,16.00
2023-01-26T21:57:35.776Z,18.57
2023-01-26T22:00:23.557Z,20.87
2023-01-26T22:03:10.277Z,19.63
2023-01-26T22:05:56.896Z,22.00
2023-01-26T22:08:44.935Z,15.67
2023-01-26T22:11:32.023Z,21.10
2023-01-26T22:14:20.956Z,17.70
2023-01-26T22:17:07.614Z,22.93
2023-01-26T22:19:56.205Z,20.63
2023-01-26T22:22:42.758Z,22.33
2023-01-26T22:25:30.524Z,19.63
2023-01-26T22:28:17.232Z,14.53
2023-01-26T22:31:06.677Z,20.40
2023-01-26T22:33:53.778Z,16.77
2023-01-26T22:36:41.079Z,20.07
2023-01-26T22:39:27.629Z,17.33
2023-01-26T22:42:15.281Z,17.77
2023-01-26T22:45:01.731Z,19.57
2023-01-26T22:47:49.516Z,15.80
2023-01-26T22:50:35.885Z,16.77
2023-01-26T22:53:22.233Z,18.17
2023-01-26T22:56:09.971Z,23.73
2023-01-26T22:59:00.417Z,22.17
2023-01-26T23:01:47.545Z,15.27
2023-01-26T23:04:34.212Z,14.47
2023-01-26T23:07:20.919Z,22.93
2023-01-26T23:10:08.584Z,21.30
2023-01-26T23:12:55.044Z,16.43
2023-01-26T23:15:42.724Z,18.10
2023-01-26T23:18:29.262Z,24.53
2023-01-26T23:21:16.292Z,17.00
2023-01-26T23:24:03.015Z,21.43
2023-01-26T23:26:49.825Z,15.53
2023-01-26T23:29:36.402Z,19.97
2023-01-26T23:32:24.185Z,18.23
2023-01-26T23:35:10.971Z,22.37
2023-01-26T23:37:57.653Z,19.53
2023-01-26T23:40:45.529Z,18.23
2023-01-26T23:43:32.177Z,17.37
2023-01-26T23:46:18.990Z,20.30
2023-01-26T23:49:07.577Z,17.10
2023-01-26T23:51:54.060Z,21.43
2023-01-26T23:54:40.453Z,23.50
2023-01-26T23:57:27.254Z,16.03
